createdAt,value
2018-03-24T00:00:15.460Z,93251.79
2018-03-24T00:02:44.111Z,93232.76
2018-03-24T00:05:12.650Z,93253.51
2018-03-24T00:07:41.084Z,93260.58
2018-03-24T00:10:09.489Z,93262.30
2018-03-24T00:12:37.945Z,93262.92
2018-03-24T00:15:06.351Z,93253.94
2018-03-24T00:17:34.800Z,93233.81
2018-03-24T00:20:03.218Z,93251.00
2018-03-24T00:22:31.606Z,93256.89
2018-03-24T00:25:00.061Z,93245.19
2018-03-24T00:27:28.458Z,93243.43
2018-03-24T00:29:56.928Z,93258.02
2018-03-24T00:32:25.309Z,93248.37
2018-03-24T00:34:53.676Z,93254.74
2018-03-24T00:37:22.101Z,93243.87
2018-03-24T00:39:50.456Z,93243.69
2018-03-24T00:42:18.881Z,93254.02
2018-03-24T00:44:47.352Z,93254.25
2018-03-24T00:47:15.782Z,93254.59
2018-03-24T00:49:44.166Z,93257.50
2018-03-24T00:52:12.602Z,93257.37
2018-03-24T00:54:41.014Z,93257.63
2018-03-24T00:57:09.458Z,93258.78
2018-03-24T00:59:37.842Z,93254.05
2018-03-24T01:02:06.238Z,93255.77
2018-03-24T01:04:34.625Z,93208.61
2018-03-24T01:07:03.069Z,93256.23
2018-03-24T01:09:31.493Z,93252.23
2018-03-24T01:11:59.894Z,93257.05
2018-03-24T01:14:28.351Z,93252.56
2018-03-24T01:16:56.757Z,93253.14
2018-03-24T01:19:25.151Z,93252.74
2018-03-24T01:21:53.578Z,93255.66
2018-03-24T01:24:22.005Z,93247.20
2018-03-24T01:26:50.425Z,93244.69
2018-03-24T01:29:18.804Z,93188.32
2018-03-24T01:31:47.225Z,93254.02
2018-03-24T01:34:15.578Z,93252.47
2018-03-24T01:36:43.979Z,93182.97
2018-03-24T01:39:12.395Z,93251.25
2018-03-24T01:41:40.952Z,93250.41
2018-03-24T01:44:09.305Z,93253.95
2018-03-24T01:46:37.873Z,93256.62
2018-03-24T01:49:06.245Z,93255.56
2018-03-24T01:51:34.661Z,93233.66
2018-03-24T01:54:03.048Z,93260.21
2018-03-24T01:56:31.436Z,93264.09
2018-03-24T01:58:59.826Z,93260.61
2018-03-24T02:01:28.228Z,93261.25
2018-03-24T02:03:56.624Z,93270.47
2018-03-24T02:06:25.006Z,93270.83
2018-03-24T02:08:53.421Z,93273.36
2018-03-24T02:11:21.817Z,93276.07
2018-03-24T02:13:50.280Z,93278.68
2018-03-24T02:16:18.646Z,93272.34
2018-03-24T02:18:47.057Z,93268.32
2018-03-24T02:21:31.040Z,93270.94
2018-03-24T02:23:59.440Z,93267.14
2018-03-24T02:26:27.808Z,93256.83
2018-03-24T02:28:56.211Z,93252.68
2018-03-24T02:31:24.601Z,93258.33
2018-03-24T02:33:53.009Z,93146.64
2018-03-24T02:36:21.389Z,93256.23
2018-03-24T02:38:49.813Z,93239.61
2018-03-24T02:41:18.219Z,93264.40
2018-03-24T02:43:46.589Z,93256.44
2018-03-24T02:46:15.100Z,93264.31
2018-03-24T02:48:43.568Z,93252.89
2018-03-24T02:51:11.978Z,93255.02
2018-03-24T02:53:40.385Z,93250.98
2018-03-24T02:56:08.805Z,93255.36
2018-03-24T02:58:37.236Z,93260.13
2018-03-24T03:01:05.666Z,93260.45
2018-03-24T03:03:34.086Z,93266.17
2018-03-24T03:06:02.490Z,93260.98
2018-03-24T03:08:30.965Z,93256.97
2018-03-24T03:10:59.357Z,93257.30
2018-03-24T03:13:27.748Z,93264.70
2018-03-24T03:15:56.180Z,93267.69
2018-03-24T03:18:24.548Z,93266.44
2018-03-24T03:20:52.982Z,93270.75
2018-03-24T03:23:21.625Z,93274.81
2018-03-24T03:25:50.044Z,93279.33
2018-03-24T03:28:18.486Z,93276.47
2018-03-24T03:30:47.441Z,93278.27
2018-03-24T03:33:15.872Z,93277.47
2018-03-24T03:35:44.239Z,93278.37
2018-03-24T03:38:12.619Z,93270.78
2018-03-24T03:40:41.095Z,93279.56
2018-03-24T03:43:09.606Z,93195.00
2018-03-24T03:45:38.032Z,93281.98
2018-03-24T03:48:06.395Z,93282.30
2018-03-24T03:50:34.818Z,93290.38
2018-03-24T03:53:03.330Z,93291.99
2018-03-24T03:55:31.739Z,93289.56
2018-03-24T03:58:00.121Z,93296.00
2018-03-24T04:00:28.520Z,93296.98
2018-03-24T04:02:56.903Z,93298.44
2018-03-24T04:05:25.328Z,93308.58
2018-03-24T04:07:53.712Z,93268.56
2018-03-24T04:10:22.151Z,93293.48
2018-03-24T04:12:50.542Z,93314.98
2018-03-24T04:15:18.921Z,93315.66
2018-03-24T04:17:47.376Z,93315.27
2018-03-24T04:20:15.988Z,93290.31
2018-03-24T04:22:44.361Z,93327.91
2018-03-24T04:25:12.752Z,93324.05
2018-03-24T04:27:41.241Z,93325.06
2018-03-24T04:30:09.655Z,93319.34
2018-03-24T04:32:38.024Z,93332.70
2018-03-24T04:35:06.440Z,93329.17
2018-03-24T04:37:34.819Z,93339.51
2018-03-24T04:40:03.266Z,93339.12
2018-03-24T04:42:31.648Z,93338.54
2018-03-24T04:45:00.080Z,93345.90
2018-03-24T04:47:28.487Z,93344.12
2018-03-24T04:49:56.905Z,93340.25
2018-03-24T04:52:25.338Z,93344.66
2018-03-24T04:54:53.785Z,93343.52
2018-03-24T04:57:22.164Z,93349.14
2018-03-24T04:59:50.586Z,93355.31
2018-03-24T05:02:19.045Z,93351.27
2018-03-24T05:04:47.425Z,93341.04
2018-03-24T05:07:15.861Z,93317.22
2018-03-24T05:09:44.317Z,93357.73
2018-03-24T05:12:12.705Z,93343.78
2018-03-24T05:14:41.109Z,93368.67
2018-03-24T05:17:09.529Z,93373.08
2018-03-24T05:19:38.017Z,93372.42
2018-03-24T05:22:06.419Z,93378.49
2018-03-24T05:24:34.787Z,93377.92
2018-03-24T05:27:03.233Z,93382.71
2018-03-24T05:29:31.632Z,93388.47
2018-03-24T05:32:00.034Z,93391.53
2018-03-24T05:34:28.479Z,93388.19
2018-03-24T05:36:56.916Z,93322.93
2018-03-24T05:39:25.424Z,93385.28
2018-03-24T05:41:53.784Z,93396.56
2018-03-24T05:44:22.155Z,93397.36
2018-03-24T05:46:50.626Z,93395.21
2018-03-24T05:49:18.996Z,93398.60
2018-03-24T05:51:47.424Z,93407.55
2018-03-24T05:54:15.799Z,93417.81
2018-03-24T05:56:44.246Z,93416.20
2018-03-24T05:59:12.644Z,93417.99
2018-03-24T06:01:41.079Z,93414.97
2018-03-24T06:04:09.484Z,93395.59
2018-03-24T06:06:38.076Z,93367.34
2018-03-24T06:09:06.488Z,93425.13
2018-03-24T06:11:34.901Z,93421.48
2018-03-24T06:14:03.272Z,93427.29
2018-03-24T06:16:31.661Z,93413.30
2018-03-24T06:19:00.204Z,93426.33
2018-03-24T06:21:28.575Z,93438.30
2018-03-24T06:23:56.948Z,93439.70
2018-03-24T06:26:25.368Z,93438.11
2018-03-24T06:28:53.810Z,93440.07
2018-03-24T06:34:23.481Z,93438.58
2018-03-24T06:36:51.908Z,93440.78
2018-03-24T06:39:20.406Z,93440.34
2018-03-24T06:41:48.832Z,93444.83
2018-03-24T06:44:17.256Z,93432.58
2018-03-24T06:46:45.646Z,93445.34
2018-03-24T06:49:14.276Z,93481.20
2018-03-24T06:51:42.769Z,93431.11
2018-03-24T06:54:11.196Z,93457.67
2018-03-24T06:56:39.918Z,93463.63
2018-03-24T06:59:09.058Z,93470.09
2018-03-24T07:01:37.814Z,93468.39
2018-03-24T07:04:06.550Z,93463.64
2018-03-24T07:06:35.476Z,93473.61
2018-03-24T07:09:05.354Z,93476.03
2018-03-24T07:11:35.039Z,93484.89
2018-03-24T07:14:03.528Z,93496.95
2018-03-24T07:16:31.949Z,93492.91
2018-03-24T07:19:01.176Z,93495.61
2018-03-24T07:21:29.540Z,93493.20
2018-03-24T07:23:57.960Z,93499.43
2018-03-24T07:26:26.720Z,93505.10
2018-03-24T07:28:55.147Z,93505.66
2018-03-24T07:31:23.754Z,93501.41
2018-03-24T07:33:52.660Z,93502.77
2018-03-24T07:36:21.058Z,93456.82
2018-03-24T07:38:49.427Z,93510.88
2018-03-24T07:41:17.919Z,93516.50
2018-03-24T07:43:46.306Z,93519.80
2018-03-24T07:46:14.680Z,93518.52
2018-03-24T07:48:44.276Z,93519.95
2018-03-24T07:51:12.629Z,93504.00
2018-03-24T07:53:41.163Z,93518.77
2018-03-24T07:56:10.137Z,93516.92
2018-03-24T07:58:38.512Z,93517.02
2018-03-24T08:01:06.901Z,93516.63
2018-03-24T08:03:35.686Z,93521.19
2018-03-24T08:06:04.060Z,93523.73
2018-03-24T08:08:32.445Z,93524.97
2018-03-24T08:11:01.240Z,93505.41
2018-03-24T08:13:29.647Z,93522.81
2018-03-24T08:15:58.001Z,93529.68
2018-03-24T08:18:26.581Z,93520.03
2018-03-24T08:20:54.956Z,93521.98
2018-03-24T08:23:24.102Z,93522.16
2018-03-24T08:25:52.846Z,93531.48
2018-03-24T08:28:21.281Z,93531.16
2018-03-24T08:30:49.654Z,93537.26
2018-03-24T08:33:18.423Z,93541.52
2018-03-24T08:35:46.788Z,93543.70
2018-03-24T08:38:15.149Z,93553.30
2018-03-24T08:40:43.938Z,93553.02
2018-03-24T08:43:12.329Z,93549.26
2018-03-24T08:45:40.701Z,93548.64
2018-03-24T08:48:09.282Z,93573.49
2018-03-24T08:50:37.653Z,93557.83
2018-03-24T08:53:06.069Z,93559.14
2018-03-24T08:55:34.806Z,93551.90
2018-03-24T08:58:03.420Z,93563.25
2018-03-24T09:00:32.052Z,93569.77
2018-03-24T09:03:00.793Z,93570.12
2018-03-24T09:05:29.172Z,93568.32
2018-03-24T09:07:57.738Z,93570.88
2018-03-24T09:10:26.549Z,93570.36
2018-03-24T09:12:54.925Z,93565.67
2018-03-24T09:15:23.340Z,93571.82
2018-03-24T09:17:51.756Z,93574.29
2018-03-24T09:20:20.137Z,93568.80
2018-03-24T09:22:48.505Z,93579.48
2018-03-24T09:25:17.325Z,93576.06
2018-03-24T09:27:45.747Z,93581.48
2018-03-24T09:30:14.144Z,93582.23
2018-03-24T09:32:42.590Z,93585.22
2018-03-24T09:35:11.004Z,93582.34
2018-03-24T09:37:39.361Z,93585.56
2018-03-24T09:40:08.016Z,93587.59
2018-03-24T09:42:36.369Z,93584.45
2018-03-24T09:45:04.872Z,93589.92
2018-03-24T09:47:33.291Z,93590.87
2018-03-24T09:50:01.696Z,93597.25
2018-03-24T09:52:30.149Z,93596.28
2018-03-24T09:54:58.544Z,93592.98
2018-03-24T09:57:26.934Z,93591.95
2018-03-24T09:59:55.304Z,93591.75
2018-03-24T10:02:24.139Z,93593.80
2018-03-24T10:04:52.559Z,93595.50
2018-03-24T10:07:20.934Z,93600.56
2018-03-24T10:09:49.397Z,93599.92
2018-03-24T10:12:17.788Z,93624.84
2018-03-24T10:14:46.147Z,93602.34
2018-03-24T10:17:14.943Z,93604.76
2018-03-24T10:19:43.304Z,93600.64
2018-03-24T10:25:18.172Z,93602.17
2018-03-24T10:27:46.954Z,93606.06
2018-03-24T10:30:15.317Z,93594.48
2018-03-24T10:32:43.715Z,93612.20
2018-03-24T10:35:12.410Z,93613.02
2018-03-24T10:37:46.274Z,93618.54
2018-03-24T10:40:14.902Z,93609.41
2018-03-24T10:45:42.879Z,93612.84
2018-03-24T10:48:11.307Z,93611.41
2018-03-24T10:50:39.742Z,93608.13
2018-03-24T10:53:08.178Z,93611.84
2018-03-24T10:55:36.548Z,93612.24
2018-03-24T10:58:04.948Z,93611.32
2018-03-24T11:00:33.429Z,93612.64
2018-03-24T11:03:01.934Z,93608.95
2018-03-24T11:05:30.337Z,93619.47
2018-03-24T11:07:59.068Z,93615.05
2018-03-24T11:10:28.608Z,93613.50
2018-03-24T11:12:56.980Z,93616.38
2018-03-24T11:15:25.405Z,93620.14
2018-03-24T11:17:53.788Z,93617.67
2018-03-24T11:20:22.146Z,93615.91
2018-03-24T11:22:50.876Z,93615.45
2018-03-24T11:25:19.584Z,93604.43
2018-03-24T11:27:47.968Z,93623.63
2018-03-24T11:30:16.655Z,93620.24
2018-03-24T11:32:45.109Z,93625.75
2018-03-24T11:35:13.482Z,93626.83
2018-03-24T11:37:42.128Z,93635.72
2018-03-24T11:40:10.497Z,93626.92
2018-03-24T11:42:38.885Z,93624.64
2018-03-24T11:45:07.621Z,93637.72
2018-03-24T11:47:36.013Z,93639.44
2018-03-24T11:50:04.372Z,93639.12
2018-03-24T11:52:33.136Z,93635.05
2018-03-24T11:55:01.543Z,93643.20
2018-03-24T11:57:29.936Z,93643.36
2018-03-24T12:00:03.946Z,93643.11
2018-03-24T12:02:32.309Z,93646.10
2018-03-24T12:05:00.720Z,93649.83
2018-03-24T12:07:29.481Z,93649.36
2018-03-24T12:09:57.889Z,93652.27
2018-03-24T12:12:26.276Z,93652.77
2018-03-24T12:14:54.697Z,93660.31
2018-03-24T12:17:23.093Z,93651.47
2018-03-24T12:19:51.456Z,93659.39
2018-03-24T12:22:20.032Z,93650.67
2018-03-24T12:24:48.408Z,93659.16
2018-03-24T12:27:16.763Z,93656.39
2018-03-24T12:29:45.582Z,93646.09
2018-03-24T12:32:13.944Z,93670.98
2018-03-24T12:34:42.328Z,93662.27
2018-03-24T12:37:10.912Z,93671.20
2018-03-24T12:39:39.297Z,93672.05
2018-03-24T12:42:07.653Z,93648.85
2018-03-24T12:44:36.059Z,93667.77
2018-03-24T12:47:04.434Z,93666.98
2018-03-24T12:49:32.823Z,93664.50
2018-03-24T12:52:01.500Z,93662.48
2018-03-24T12:54:29.933Z,93664.73
2018-03-24T12:56:58.308Z,93667.45
2018-03-24T12:59:27.148Z,93667.92
2018-03-24T13:01:55.526Z,93669.50
2018-03-24T13:04:23.905Z,93677.41
2018-03-24T13:06:52.660Z,93677.16
2018-03-24T13:09:21.042Z,93677.70
2018-03-24T13:11:49.542Z,93660.23
2018-03-24T13:14:18.154Z,93682.92
2018-03-24T13:16:46.503Z,93685.96
2018-03-24T13:19:14.852Z,93683.50
2018-03-24T13:21:43.497Z,93689.51
2018-03-24T13:24:11.849Z,93691.26
2018-03-24T13:26:40.203Z,93695.12
2018-03-24T13:29:08.823Z,93695.00
2018-03-24T13:31:37.185Z,93673.48
2018-03-24T13:34:05.536Z,93695.66
2018-03-24T13:36:34.175Z,93704.39
2018-03-24T13:39:02.587Z,93706.88
2018-03-24T13:41:31.050Z,93705.72
2018-03-24T13:43:59.774Z,93700.22
2018-03-24T13:46:28.151Z,93714.63
2018-03-24T13:48:56.504Z,93717.11
2018-03-24T13:51:25.275Z,93717.70
2018-03-24T13:53:53.686Z,93723.82
2018-03-24T13:56:22.089Z,93725.61
2018-03-24T13:58:50.812Z,93724.06
2018-03-24T14:01:19.185Z,93732.12
2018-03-24T14:03:47.549Z,93735.09
2018-03-24T14:06:16.360Z,93729.46
2018-03-24T14:08:44.738Z,93735.30
2018-03-24T14:11:13.116Z,93739.48
2018-03-24T14:13:41.909Z,93742.40
2018-03-24T14:16:10.496Z,93741.26
2018-03-24T14:18:38.924Z,93750.16
2018-03-24T14:21:07.341Z,93748.01
2018-03-24T14:23:35.764Z,93748.14
2018-03-24T14:26:04.159Z,93755.84
2018-03-24T14:28:32.901Z,93761.47
2018-03-24T14:31:01.307Z,93761.03
2018-03-24T14:33:29.764Z,93768.00
2018-03-24T14:35:58.348Z,93766.68
2018-03-24T14:38:26.713Z,93730.24
2018-03-24T14:40:55.117Z,93769.17
2018-03-24T14:43:23.920Z,93768.44
2018-03-24T14:45:52.273Z,93776.76
2018-03-24T14:48:20.628Z,93781.18
2018-03-24T14:50:49.256Z,93782.00
2018-03-24T14:53:17.617Z,93785.47
2018-03-24T14:55:45.983Z,93789.80
2018-03-24T14:58:14.790Z,93796.98
2018-03-24T15:00:43.156Z,93753.19
2018-03-24T15:03:11.536Z,93774.19
2018-03-24T15:05:39.966Z,93803.23
2018-03-24T15:08:08.321Z,93810.34
2018-03-24T15:10:36.695Z,93808.55
2018-03-24T15:13:05.100Z,93818.91
2018-03-24T15:15:33.502Z,93829.61
2018-03-24T15:18:01.892Z,93824.89
2018-03-24T15:20:30.616Z,93808.91
2018-03-24T15:22:58.972Z,93832.22
2018-03-24T15:25:27.345Z,93838.23
2018-03-24T15:27:55.967Z,93841.41
2018-03-24T15:30:36.200Z,93846.44
2018-03-24T15:33:16.796Z,93847.72
2018-03-24T15:35:56.950Z,93853.83
2018-03-24T15:38:25.750Z,93859.95
2018-03-24T15:40:54.118Z,93866.75
2018-03-24T15:43:22.993Z,93868.36
2018-03-24T15:45:51.789Z,93870.91
2018-03-24T15:48:20.180Z,93872.98
2018-03-24T15:50:48.586Z,93877.74
2018-03-24T15:53:17.254Z,93879.90
2018-03-24T15:55:45.667Z,93884.94
2018-03-24T15:58:14.076Z,93890.76
2018-03-24T16:00:42.860Z,93893.93
2018-03-24T16:03:11.276Z,93891.66
2018-03-24T16:05:39.637Z,93895.61
2018-03-24T16:08:08.074Z,93906.27
2018-03-24T16:10:36.440Z,93907.47
2018-03-24T16:13:04.834Z,93923.36
2018-03-24T16:15:33.536Z,93927.89
2018-03-24T16:18:01.916Z,93923.38
2018-03-24T16:20:30.311Z,93925.73
2018-03-24T16:22:58.915Z,93936.41
2018-03-24T16:25:27.292Z,93937.69
2018-03-24T16:27:55.663Z,93943.02
2018-03-24T16:30:24.268Z,93936.81
2018-03-24T16:32:53.692Z,93938.30
2018-03-24T16:35:24.535Z,93945.28
2018-03-24T16:37:53.425Z,93945.19
2018-03-24T16:40:21.827Z,93950.62
2018-03-24T16:42:50.262Z,93952.31
2018-03-24T16:45:18.881Z,93953.30
2018-03-24T16:47:47.265Z,93954.86
2018-03-24T16:50:15.647Z,93951.32
2018-03-24T16:52:44.396Z,93954.30
2018-03-24T16:55:12.819Z,93932.26
2018-03-24T16:57:41.202Z,93958.04
2018-03-24T17:00:09.993Z,93967.72
2018-03-24T17:02:38.417Z,93973.22
2018-03-24T17:05:06.805Z,93970.86
2018-03-24T17:07:35.220Z,93968.70
2018-03-24T17:10:03.766Z,93971.27
2018-03-24T17:12:32.164Z,93978.57
2018-03-24T17:15:00.958Z,93976.49
2018-03-24T17:17:29.474Z,93977.60
2018-03-24T17:19:57.848Z,93981.27
2018-03-24T17:22:26.569Z,93979.17
2018-03-24T17:24:55.012Z,93967.32
2018-03-24T17:27:23.417Z,93964.27
2018-03-24T17:29:51.865Z,93982.53
2018-03-24T17:32:20.292Z,93976.32
2018-03-24T17:34:48.685Z,93988.30
2018-03-24T17:37:17.590Z,93984.52
2018-03-24T17:39:45.957Z,93990.95
2018-03-24T17:42:14.391Z,93990.25
2018-03-24T17:44:43.138Z,93991.15
2018-03-24T17:47:11.537Z,93990.63
2018-03-24T17:49:39.990Z,93996.06
2018-03-24T17:52:09.030Z,94000.23
2018-03-24T17:54:37.444Z,94012.30
2018-03-24T17:57:05.914Z,94010.03
2018-03-24T17:59:34.754Z,94006.57
2018-03-24T18:02:04.097Z,94014.16
2018-03-24T18:04:32.565Z,94021.09
2018-03-24T18:07:01.474Z,94029.11
2018-03-24T18:09:29.992Z,94031.19
2018-03-24T18:11:58.360Z,94036.23
2018-03-24T18:14:27.186Z,94038.79
2018-03-24T18:16:55.540Z,94045.83
2018-03-24T18:19:23.904Z,94044.02
2018-03-24T18:21:52.752Z,94043.63
2018-03-24T18:24:21.168Z,94043.92
2018-03-24T18:26:49.598Z,94046.91
2018-03-24T18:29:18.033Z,94054.32
2018-03-24T18:31:46.394Z,94051.16
2018-03-24T18:34:14.793Z,94052.62
2018-03-24T18:36:43.224Z,94053.41
2018-03-24T18:39:11.619Z,94055.49
2018-03-24T18:41:39.997Z,94053.92
2018-03-24T18:44:08.452Z,94058.08
2018-03-24T18:46:36.858Z,94061.74
2018-03-24T18:49:05.241Z,94064.01
2018-03-24T18:51:33.645Z,94066.28
2018-03-24T18:54:02.085Z,94061.73
2018-03-24T18:56:30.520Z,94069.13
2018-03-24T18:58:58.901Z,94074.20
2018-03-24T19:01:27.303Z,94074.30
2018-03-24T19:03:55.777Z,94074.88
2018-03-24T19:06:24.194Z,94077.25
2018-03-24T19:08:52.604Z,94085.08
2018-03-24T19:11:21.001Z,94085.55
2018-03-24T19:13:49.485Z,94095.74
2018-03-24T19:16:17.896Z,94095.14
2018-03-24T19:18:46.288Z,94100.30
2018-03-24T19:21:14.697Z,94103.87
2018-03-24T19:23:43.273Z,94106.14
2018-03-24T19:26:11.672Z,94107.72
2018-03-24T19:28:40.049Z,94107.63
2018-03-24T19:31:08.450Z,94111.87
2018-03-24T19:33:36.856Z,94109.79
2018-03-24T19:36:05.272Z,94110.86
2018-03-24T19:38:33.644Z,94117.99
2018-03-24T19:41:02.057Z,94123.83
2018-03-24T19:43:30.419Z,94118.20
2018-03-24T19:45:58.787Z,94143.09
2018-03-24T19:48:27.201Z,94133.70
2018-03-24T19:50:55.564Z,94134.22
2018-03-24T19:53:23.954Z,94133.23
2018-03-24T19:55:52.365Z,94132.27
2018-03-24T19:58:20.750Z,94137.77
2018-03-24T20:00:49.197Z,94132.73
2018-03-24T20:03:17.697Z,94135.39
2018-03-24T20:05:52.085Z,94132.23
2018-03-24T20:08:20.516Z,94134.90
2018-03-24T20:10:49.760Z,94135.56
2018-03-24T20:13:18.130Z,94134.67
2018-03-24T20:15:46.544Z,94122.26
2018-03-24T20:18:14.956Z,94120.46
2018-03-24T20:20:43.370Z,94115.63
2018-03-24T20:23:11.734Z,94125.02
2018-03-24T20:25:40.128Z,94124.86
2018-03-24T20:28:08.499Z,94141.24
2018-03-24T20:30:36.917Z,94150.12
2018-03-24T20:33:05.285Z,94141.71
2018-03-24T20:35:33.756Z,94142.33
2018-03-24T20:38:02.193Z,94147.37
2018-03-24T20:40:30.608Z,94150.78
2018-03-24T20:42:58.990Z,94141.58
2018-03-24T20:45:27.397Z,94146.19
2018-03-24T20:47:55.800Z,94153.19
2018-03-24T20:50:24.180Z,94156.83
2018-03-24T20:52:52.606Z,94155.74
2018-03-24T20:55:20.951Z,94151.33
2018-03-24T20:57:49.372Z,94152.45
2018-03-24T21:00:17.769Z,94155.02
2018-03-24T21:02:46.193Z,94147.69
2018-03-24T21:05:14.612Z,94158.91
2018-03-24T21:07:43.016Z,94162.45
2018-03-24T21:10:11.481Z,94162.52
2018-03-24T21:12:39.938Z,94161.30
2018-03-24T21:15:10.310Z,94158.52
2018-03-24T21:17:38.741Z,94154.64
2018-03-24T21:20:07.126Z,94153.50
2018-03-24T21:22:35.559Z,94156.22
2018-03-24T21:25:04.010Z,94149.32
2018-03-24T21:27:32.404Z,94150.31
2018-03-24T21:30:00.830Z,94150.41
2018-03-24T21:32:29.201Z,94128.42
2018-03-24T21:34:57.608Z,94144.87
2018-03-24T21:37:26.026Z,94144.56
2018-03-24T21:39:54.385Z,94152.75
2018-03-24T21:42:22.832Z,94153.47
2018-03-24T21:44:51.209Z,94135.38
2018-03-24T21:47:19.609Z,94160.48
2018-03-24T21:49:48.078Z,94160.61
2018-03-24T21:52:16.478Z,94156.92
2018-03-24T21:54:44.857Z,94169.41
2018-03-24T21:57:13.317Z,94169.49
2018-03-24T21:59:41.681Z,94163.14
2018-03-24T22:02:10.104Z,94157.55
2018-03-24T22:04:38.486Z,94159.69
2018-03-24T22:07:06.897Z,94159.70
2018-03-24T22:09:35.301Z,94162.44
2018-03-24T22:12:03.745Z,94158.09
2018-03-24T22:14:32.512Z,94163.24
2018-03-24T22:17:00.951Z,94164.42
2018-03-24T22:19:29.707Z,94157.13
2018-03-24T22:21:59.756Z,94160.01
2018-03-24T22:24:28.453Z,94158.89
2018-03-24T22:26:56.871Z,94162.52
2018-03-24T22:29:25.374Z,94165.94
2018-03-24T22:31:53.724Z,94170.18
2018-03-24T22:34:22.222Z,94165.14
2018-03-24T22:36:50.535Z,94162.84
2018-03-24T22:39:19.025Z,94172.74
2018-03-24T22:41:47.400Z,94174.02
2018-03-24T22:44:15.820Z,94182.25
2018-03-24T22:46:44.383Z,94170.64
2018-03-24T22:49:12.947Z,94173.52
2018-03-24T22:51:41.323Z,94175.99
2018-03-24T22:54:09.753Z,94174.70
2018-03-24T22:56:38.122Z,94176.33
2018-03-24T22:59:06.553Z,94179.36
2018-03-24T23:01:34.985Z,94175.14
2018-03-24T23:04:03.380Z,94185.05
2018-03-24T23:06:31.817Z,94185.23
2018-03-24T23:09:00.587Z,94184.30
2018-03-24T23:11:30.187Z,94182.53
2018-03-24T23:13:58.680Z,94187.57
2018-03-24T23:16:27.061Z,94191.34
2018-03-24T23:18:55.491Z,94184.95
2018-03-24T23:21:23.876Z,94184.27
2018-03-24T23:23:52.260Z,94190.61
2018-03-24T23:26:20.694Z,94194.28
2018-03-24T23:28:49.073Z,94205.94
2018-03-24T23:31:17.520Z,94192.02
2018-03-24T23:33:46.789Z,94195.81
2018-03-24T23:36:15.196Z,94187.17
2018-03-24T23:38:43.632Z,94184.48
2018-03-24T23:41:12.105Z,94195.77
2018-03-24T23:43:40.532Z,94197.83
2018-03-24T23:46:08.967Z,94198.42
2018-03-24T23:48:37.350Z,94199.75
2018-03-24T23:51:06.038Z,94195.23
2018-03-24T23:53:34.491Z,94207.36
2018-03-24T23:56:02.899Z,94203.25
2018-03-24T23:58:31.281Z,94205.50
